createdAt,value
2022-07-25T00:00:25.547Z,100418.34
2022-07-25T00:02:52.261Z,100423.03
2022-07-25T00:05:19.168Z,100418.44
2022-07-25T00:07:45.923Z,100425.44
2022-07-25T00:10:12.737Z,100422.50
2022-07-25T00:12:39.895Z,100425.09
2022-07-25T00:15:07.398Z,100431.66
2022-07-25T00:17:34.124Z,100435.47
2022-07-25T00:20:01.637Z,100439.44
2022-07-25T00:22:28.366Z,100440.22
2022-07-25T00:24:55.173Z,100438.34
2022-07-25T00:27:22.145Z,100445.97
2022-07-25T00:29:48.980Z,100445.97
2022-07-25T00:32:15.677Z,100449.75
2022-07-25T00:34:42.612Z,100458.41
2022-07-25T00:37:09.479Z,100450.13
2022-07-25T00:39:36.652Z,100450.97
2022-07-25T00:42:03.894Z,100451.38
2022-07-25T00:44:32.321Z,100457.88
2022-07-25T00:46:59.768Z,100461.22
2022-07-25T00:49:27.423Z,100467.81
2022-07-25T00:51:54.718Z,100461.91
2022-07-25T00:54:22.323Z,100463.59
2022-07-25T00:56:50.401Z,100461.72
2022-07-25T00:59:17.849Z,100463.19
2022-07-25T01:01:48.247Z,100460.91
2022-07-25T01:04:17.072Z,100463.19
2022-07-25T01:06:44.746Z,100454.94
2022-07-25T01:09:11.610Z,100464.94
2022-07-25T01:11:39.203Z,100456.91
2022-07-25T01:14:06.931Z,100461.44
2022-07-25T01:16:34.036Z,100462.56
2022-07-25T01:19:00.845Z,100460.72
2022-07-25T01:21:28.068Z,100468.59
2022-07-25T01:23:54.806Z,100471.59
2022-07-25T01:26:22.007Z,100465.91
2022-07-25T01:28:48.759Z,100468.44
2022-07-25T01:31:15.669Z,100471.19
2022-07-25T01:33:42.719Z,100469.91
2022-07-25T01:36:09.600Z,100461.06
2022-07-25T01:38:36.517Z,100469.75
2022-07-25T01:41:03.315Z,100477.75
2022-07-25T01:43:30.323Z,100472.88
2022-07-25T01:45:57.279Z,100478.94
2022-07-25T01:48:24.567Z,100485.09
2022-07-25T01:50:51.546Z,100488.03
2022-07-25T01:53:19.132Z,100490.31
2022-07-25T01:55:47.027Z,100479.94
2022-07-25T01:58:13.868Z,100488.81
2022-07-25T02:00:41.337Z,100493.25
2022-07-25T02:03:26.765Z,100489.66
2022-07-25T02:05:53.419Z,100497.44
2022-07-25T02:08:20.173Z,100491.56
2022-07-25T02:10:47.094Z,100491.34
2022-07-25T02:13:13.772Z,100493.88
2022-07-25T02:15:41.050Z,100490.91
2022-07-25T02:18:07.955Z,100491.53
2022-07-25T02:20:34.673Z,100498.91
2022-07-25T02:23:02.291Z,100494.88
2022-07-25T02:25:29.372Z,100491.31
2022-07-25T02:27:56.156Z,100495.94
2022-07-25T02:30:23.151Z,100493.63
2022-07-25T02:32:50.273Z,100501.50
2022-07-25T02:35:17.046Z,100510.38
2022-07-25T02:37:43.986Z,100509.78
2022-07-25T02:40:11.403Z,100506.22
2022-07-25T02:42:38.115Z,100507.91
2022-07-25T02:45:05.588Z,100503.72
2022-07-25T02:47:32.502Z,100514.94
2022-07-25T02:49:59.155Z,100512.59
2022-07-25T02:52:26.046Z,100519.16
2022-07-25T02:54:52.988Z,100518.09
2022-07-25T02:57:19.763Z,100520.22
2022-07-25T02:59:46.669Z,100517.28
2022-07-25T03:02:13.575Z,100523.63
2022-07-25T03:04:40.307Z,100518.53
2022-07-25T03:07:07.072Z,100508.44
2022-07-25T03:09:33.924Z,100515.59
2022-07-25T03:12:00.593Z,100517.28
2022-07-25T03:14:27.328Z,100517.91
2022-07-25T03:16:54.335Z,100514.75
2022-07-25T03:19:21.327Z,100504.59
2022-07-25T03:21:48.194Z,100506.28
2022-07-25T03:24:15.247Z,100512.66
2022-07-25T03:26:41.949Z,100515.16
2022-07-25T03:29:08.754Z,100519.34
2022-07-25T03:31:35.720Z,100522.31
2022-07-25T03:34:02.647Z,100520.22
2022-07-25T03:36:29.704Z,100522.09
2022-07-25T03:38:57.929Z,100523.19
2022-07-25T03:41:24.633Z,100526.16
2022-07-25T03:43:54.685Z,100528.69
2022-07-25T03:46:21.548Z,100533.53
2022-07-25T03:48:48.360Z,100520.88
2022-07-25T03:51:15.093Z,100529.94
2022-07-25T03:54:00.482Z,100539.25
2022-07-25T03:56:43.414Z,100540.94
2022-07-25T03:59:13.268Z,100545.38
2022-07-25T04:01:40.713Z,100541.97
2022-07-25T04:04:08.325Z,100543.69
2022-07-25T04:06:35.656Z,100545.38
2022-07-25T04:09:02.432Z,100542.84
2022-07-25T04:11:31.028Z,100550.22
2022-07-25T04:13:58.647Z,100558.91
2022-07-25T04:16:25.532Z,100560.59
2022-07-25T04:18:56.181Z,100564.59
2022-07-25T04:21:24.753Z,100573.66
2022-07-25T04:23:51.506Z,100574.31
2022-07-25T04:26:18.589Z,100586.13
2022-07-25T04:28:45.516Z,100579.81
2022-07-25T04:31:12.296Z,100578.53
2022-07-25T04:33:39.862Z,100581.06
2022-07-25T04:36:08.249Z,100586.56
2022-07-25T04:38:35.181Z,100585.25
2022-07-25T04:41:02.162Z,100583.38
2022-07-25T04:43:29.122Z,100590.56
2022-07-25T04:45:56.002Z,100588.00
2022-07-25T04:48:22.716Z,100588.88
2022-07-25T04:50:49.781Z,100589.91
2022-07-25T04:53:16.538Z,100582.13
2022-07-25T04:55:43.195Z,100583.81
2022-07-25T04:58:10.029Z,100595.84
2022-07-25T05:00:36.864Z,100587.63
2022-07-25T05:03:03.654Z,100599.69
2022-07-25T05:05:30.691Z,100604.75
2022-07-25T05:07:59.062Z,100609.81
2022-07-25T05:10:27.913Z,100616.78
2022-07-25T05:12:54.905Z,100617.00
2022-07-25T05:15:21.754Z,100622.47
2022-07-25T05:17:48.518Z,100618.47
2022-07-25T05:20:15.724Z,100625.84
2022-07-25T05:22:42.773Z,100625.00
2022-07-25T05:25:11.371Z,100630.88
2022-07-25T05:27:39.180Z,100632.34
2022-07-25T05:30:08.115Z,100636.75
2022-07-25T05:32:34.900Z,100639.69
2022-07-25T05:35:01.878Z,100639.69
2022-07-25T05:37:28.649Z,100636.94
2022-07-25T05:39:55.373Z,100642.00
2022-07-25T05:42:22.531Z,100650.03
2022-07-25T05:44:49.295Z,100650.22
2022-07-25T05:47:16.049Z,100655.50
2022-07-25T05:49:42.972Z,100658.03
2022-07-25T05:52:26.009Z,100668.78
2022-07-25T05:54:52.955Z,100668.78
2022-07-25T06:02:03.411Z,100691.19
2022-07-25T06:05:29.923Z,100701.75
2022-07-25T06:08:56.589Z,100716.38
2022-07-25T06:12:24.443Z,100717.03
2022-07-25T06:19:43.692Z,100725.44
2022-07-25T06:23:10.195Z,100736.84
2022-07-25T06:30:28.891Z,100741.69
2022-07-25T06:33:55.355Z,100753.06
2022-07-25T06:37:22.688Z,100760.91
2022-07-25T06:40:49.254Z,100763.91
2022-07-25T06:48:08.447Z,100773.63
2022-07-25T06:51:34.933Z,100793.50
2022-07-25T06:58:52.670Z,100803.44
2022-07-25T07:02:19.138Z,100805.75
2022-07-25T07:05:45.891Z,100813.78
2022-07-25T07:09:12.366Z,100809.56
2022-07-25T07:16:31.138Z,100813.53
2022-07-25T07:19:57.814Z,100812.03
2022-07-25T07:36:57.377Z,100845.41
2022-07-25T07:39:24.075Z,100842.44
2022-07-25T07:41:50.984Z,100853.22
2022-07-25T07:44:18.372Z,100855.28
2022-07-25T07:46:45.195Z,100845.09
2022-07-25T07:49:12.263Z,100860.78
2022-07-25T07:51:39.470Z,100859.97
2022-07-25T07:54:25.062Z,100876.69
2022-07-25T07:56:52.076Z,100871.81
2022-07-25T07:59:18.921Z,100878.78
2022-07-25T08:01:45.651Z,100876.47
2022-07-25T08:04:13.020Z,100885.78
2022-07-25T08:06:43.063Z,100884.06
2022-07-25T08:09:10.155Z,100886.56
2022-07-25T08:11:37.288Z,100894.44
2022-07-25T08:14:05.558Z,100918.56
2022-07-25T08:16:33.678Z,100910.97
2022-07-25T08:19:00.810Z,100913.09
2022-07-25T08:21:27.649Z,100910.53
2022-07-25T08:23:54.880Z,100923.47
2022-07-25T08:26:21.670Z,100921.97
2022-07-25T08:28:52.528Z,100924.13
2022-07-25T08:32:26.750Z,100923.00
2022-07-25T08:34:53.521Z,100937.16
2022-07-25T08:37:20.401Z,100942.03
2022-07-25T08:39:47.279Z,100947.25
2022-07-25T08:42:14.207Z,100950.22
2022-07-25T08:44:44.165Z,100963.59
2022-07-25T08:47:15.828Z,100956.41
2022-07-25T08:54:24.127Z,100972.97
2022-07-25T08:57:50.590Z,100974.88
2022-07-25T09:04:12.348Z,100989.25
2022-07-25T09:07:38.813Z,100991.38
2022-07-25T09:10:32.681Z,100995.19
2022-07-25T09:13:02.067Z,101002.38
2022-07-25T09:15:33.147Z,101002.16
2022-07-25T09:18:02.387Z,101006.22
2022-07-25T09:20:44.409Z,101015.06
2022-07-25T09:24:11.041Z,101023.09
2022-07-25T09:31:41.538Z,101032.00
2022-07-25T09:34:50.941Z,101048.69
2022-07-25T09:37:35.393Z,101055.25
2022-07-25T09:40:02.287Z,101058.00
2022-07-25T09:42:37.862Z,101066.47
2022-07-25T09:45:35.025Z,101065.81
2022-07-25T09:49:01.753Z,101080.22
2022-07-25T09:52:28.343Z,101087.19
2022-07-25T09:55:55.155Z,101091.56
2022-07-25T09:59:21.682Z,101095.97
2022-07-25T10:01:56.673Z,101082.28
2022-07-25T10:04:36.855Z,101093.03
2022-07-25T10:07:12.610Z,101099.53
2022-07-25T10:09:47.951Z,101098.34
2022-07-25T10:12:19.431Z,101104.56
2022-07-25T10:15:07.583Z,101101.91
2022-07-25T10:17:35.600Z,101110.16
2022-07-25T10:20:04.162Z,101115.06
2022-07-25T10:22:55.113Z,101125.47
2022-07-25T10:25:23.637Z,101134.97
2022-07-25T10:27:58.546Z,101136.75
2022-07-25T10:34:16.316Z,101149.91
2022-07-25T10:36:47.642Z,101159.06
2022-07-25T10:39:16.967Z,101157.38
2022-07-25T10:41:50.015Z,101168.28
2022-07-25T10:44:17.132Z,101160.97
2022-07-25T10:46:45.176Z,101165.53
2022-07-25T10:49:23.577Z,101169.44
2022-07-25T10:52:01.155Z,101177.72
2022-07-25T10:54:37.985Z,101181.13
2022-07-25T10:57:07.179Z,101192.03
2022-07-25T10:59:35.623Z,101190.25
2022-07-25T11:02:05.106Z,101201.09
2022-07-25T11:04:32.230Z,101198.94
2022-07-25T11:07:08.916Z,101199.66
2022-07-25T11:09:35.865Z,101198.81
2022-07-25T11:12:02.739Z,101213.28
2022-07-25T11:14:33.395Z,101210.81
2022-07-25T11:17:18.907Z,101222.44
2022-07-25T11:19:56.142Z,101227.34
2022-07-25T11:22:23.393Z,101230.94
2022-07-25T11:24:50.079Z,101239.56
2022-07-25T11:27:32.767Z,101245.78
2022-07-25T11:30:09.630Z,101249.16
2022-07-25T11:32:42.479Z,101267.78
2022-07-25T11:35:11.241Z,101256.22
2022-07-25T11:37:40.703Z,101276.88
2022-07-25T11:40:08.491Z,101274.78
2022-07-25T11:42:44.576Z,101271.75
2022-07-25T11:45:21.535Z,101271.13
2022-07-25T11:48:01.703Z,101269.28
2022-07-25T11:50:33.555Z,101274.22
2022-07-25T11:53:02.096Z,101275.31
2022-07-25T11:55:31.458Z,101272.25
2022-07-25T11:58:03.161Z,101277.84
2022-07-25T12:00:30.999Z,101285.94
2022-07-25T12:03:14.245Z,101292.38
2022-07-25T12:05:45.669Z,101300.91
2022-07-25T12:08:14.283Z,101302.34
2022-07-25T12:10:42.064Z,101301.44
2022-07-25T12:13:10.270Z,101316.06
2022-07-25T12:16:37.038Z,101305.69
2022-07-25T12:20:06.709Z,101313.59
2022-07-25T12:26:29.963Z,101319.31
2022-07-25T12:28:56.795Z,101317.59
2022-07-25T12:31:24.924Z,101336.66
2022-07-25T12:33:52.864Z,101349.03
2022-07-25T12:37:19.337Z,101336.81
2022-07-25T12:40:46.065Z,101341.88
2022-07-25T12:44:12.525Z,101358.72
2022-07-25T12:47:39.152Z,101352.59
2022-07-25T12:53:48.959Z,101364.88
2022-07-25T12:57:15.648Z,101354.47
2022-07-25T13:00:42.415Z,101370.03
2022-07-25T13:06:53.666Z,101369.63
2022-07-25T13:09:20.547Z,101367.69
2022-07-25T13:12:47.201Z,101365.97
2022-07-25T13:15:33.863Z,101366.31
2022-07-25T13:18:02.704Z,101376.59
2022-07-25T13:20:45.972Z,101366.94
2022-07-25T13:23:16.297Z,101378.97
2022-07-25T13:30:28.466Z,101387.63
2022-07-25T13:33:54.994Z,101399.94
2022-07-25T13:41:13.161Z,101411.00
2022-07-25T13:44:40.017Z,101390.56
2022-07-25T13:47:06.980Z,101400.88
2022-07-25T13:49:33.806Z,101410.34
2022-07-25T13:52:00.483Z,101416.09
2022-07-25T13:54:27.493Z,101412.09
2022-07-25T13:56:54.444Z,101416.81
2022-07-25T13:59:22.006Z,101417.69
2022-07-25T14:01:50.003Z,101413.34
2022-07-25T14:04:17.384Z,101425.34
2022-07-25T14:06:44.173Z,101429.53
2022-07-25T14:09:11.389Z,101434.91
2022-07-25T14:11:38.389Z,101421.13
2022-07-25T14:14:05.125Z,101426.91
2022-07-25T14:16:34.163Z,101437.66
2022-07-25T14:19:02.204Z,101437.31
2022-07-25T14:21:30.263Z,101434.44
2022-07-25T14:23:57.405Z,101446.25
2022-07-25T14:26:24.236Z,101441.63
2022-07-25T14:28:51.034Z,101448.44
2022-07-25T14:31:18.128Z,101450.00
2022-07-25T14:33:44.906Z,101449.06
2022-07-25T14:36:11.664Z,101465.13
2022-07-25T14:38:39.278Z,101466.16
2022-07-25T14:41:13.147Z,101467.03
2022-07-25T14:43:41.334Z,101469.13
2022-07-25T14:46:08.613Z,101468.41
2022-07-25T14:48:37.502Z,101461.44
2022-07-25T14:51:06.006Z,101469.47
2022-07-25T14:53:34.553Z,101471.06
2022-07-25T14:56:03.097Z,101476.22
2022-07-25T14:58:30.252Z,101476.41
2022-07-25T15:00:59.896Z,101486.56
2022-07-25T15:03:26.900Z,101492.84
2022-07-25T15:05:54.112Z,101488.19
2022-07-25T15:08:20.814Z,101471.72
2022-07-25T15:10:48.004Z,101476.91
2022-07-25T15:13:30.480Z,101465.44
2022-07-25T15:15:59.156Z,101481.50
2022-07-25T15:18:26.099Z,101485.56
2022-07-25T15:20:52.899Z,101483.69
2022-07-25T15:23:21.272Z,101492.13
2022-07-25T15:26:04.617Z,101484.34
2022-07-25T15:28:37.412Z,101510.53
2022-07-25T15:31:05.643Z,101506.19
2022-07-25T15:33:32.564Z,101508.69
2022-07-25T15:35:59.670Z,101518.91
2022-07-25T15:38:26.960Z,101511.53
2022-07-25T15:40:53.669Z,101515.72
2022-07-25T15:43:20.746Z,101529.09
2022-07-25T15:45:47.896Z,101539.06
2022-07-25T15:48:17.005Z,101537.44
2022-07-25T15:50:48.925Z,101526.59
2022-07-25T15:53:15.859Z,101555.47
2022-07-25T15:55:42.960Z,101543.59
2022-07-25T15:58:11.392Z,101533.97
2022-07-25T16:00:39.299Z,101542.16
2022-07-25T16:03:07.217Z,101542.75
2022-07-25T16:05:34.640Z,101558.84
2022-07-25T16:11:44.586Z,101574.59
2022-07-25T16:14:11.457Z,101570.69
2022-07-25T16:16:38.241Z,101577.63
2022-07-25T16:19:05.520Z,101575.00
2022-07-25T16:21:32.403Z,101583.94
2022-07-25T16:23:59.130Z,101587.63
2022-07-25T16:26:26.019Z,101589.84
2022-07-25T16:28:56.178Z,101590.28
2022-07-25T16:31:24.501Z,101599.06
2022-07-25T16:33:51.544Z,101609.88
2022-07-25T16:36:18.606Z,101597.41
2022-07-25T16:38:46.795Z,101601.91
2022-07-25T16:41:13.690Z,101619.44
2022-07-25T16:43:40.539Z,101620.84
2022-07-25T16:46:07.929Z,101619.91
2022-07-25T16:48:35.177Z,101612.38
2022-07-25T16:51:01.879Z,101619.63
2022-07-25T16:53:28.533Z,101614.91
2022-07-25T16:55:55.599Z,101627.47
2022-07-25T16:58:22.288Z,101623.16
2022-07-25T17:00:49.336Z,101628.69
2022-07-25T17:03:16.370Z,101633.22
2022-07-25T17:05:43.129Z,101630.00
2022-07-25T17:08:09.857Z,101636.75
2022-07-25T17:10:36.750Z,101645.72
2022-07-25T17:13:03.543Z,101642.28
2022-07-25T17:15:30.298Z,101650.06
2022-07-25T17:17:57.719Z,101651.91
2022-07-25T17:20:24.518Z,101646.44
2022-07-25T17:22:51.252Z,101655.44
2022-07-25T17:25:18.384Z,101663.63
2022-07-25T17:27:45.096Z,101678.13
2022-07-25T17:30:12.381Z,101666.69
2022-07-25T17:32:39.701Z,101679.91
2022-07-25T17:35:06.586Z,101693.47
2022-07-25T17:37:33.328Z,101698.59
2022-07-25T17:40:00.433Z,101701.97
2022-07-25T17:42:27.159Z,101712.19
2022-07-25T17:44:54.025Z,101707.50
2022-07-25T17:47:22.273Z,101715.56
2022-07-25T17:49:50.016Z,101723.00
2022-07-25T17:52:17.872Z,101730.03
2022-07-25T17:54:45.138Z,101737.47
2022-07-25T17:57:12.040Z,101744.88
2022-07-25T17:59:38.847Z,101747.88
2022-07-25T18:02:05.728Z,101747.88
2022-07-25T18:04:32.484Z,101752.75
2022-07-25T18:06:59.325Z,101757.66
2022-07-25T18:09:26.266Z,101759.59
2022-07-25T18:11:54.728Z,101760.66
2022-07-25T18:14:22.144Z,101749.59
2022-07-25T18:16:49.122Z,101748.28
2022-07-25T18:19:15.916Z,101761.47
2022-07-25T18:21:42.654Z,101776.94
2022-07-25T18:24:10.003Z,101779.47
2022-07-25T18:26:36.963Z,101785.56
2022-07-25T18:29:07.471Z,101786.56
2022-07-25T18:31:35.281Z,101784.81
2022-07-25T18:34:02.660Z,101784.38
2022-07-25T18:36:29.735Z,101778.44
2022-07-25T18:38:58.859Z,101795.19
2022-07-25T18:41:29.687Z,101790.13
2022-07-25T18:43:56.972Z,101800.78
2022-07-25T18:46:24.142Z,101801.81
2022-07-25T18:48:50.977Z,101787.63
2022-07-25T18:51:17.993Z,101784.69
2022-07-25T18:53:48.312Z,101791.50
2022-07-25T18:56:17.193Z,101790.88
2022-07-25T18:58:44.613Z,101801.06
2022-07-25T19:01:12.606Z,101808.53
2022-07-25T19:03:40.696Z,101811.09
2022-07-25T19:06:10.877Z,101814.06
2022-07-25T19:08:38.258Z,101814.44
2022-07-25T19:11:05.126Z,101816.56
2022-07-25T19:13:49.066Z,101815.25
2022-07-25T19:16:17.762Z,101821.13
2022-07-25T19:18:44.806Z,101830.22
2022-07-25T19:21:13.551Z,101834.59
2022-07-25T19:23:41.099Z,101833.88
2022-07-25T19:26:08.066Z,101842.91
2022-07-25T19:28:37.047Z,101851.31
2022-07-25T19:31:03.990Z,101854.66
2022-07-25T19:33:34.635Z,101850.38
2022-07-25T19:36:06.898Z,101857.91
2022-07-25T19:38:33.921Z,101863.81
2022-07-25T19:41:01.015Z,101862.44
2022-07-25T19:43:28.218Z,101870.06
2022-07-25T19:45:55.146Z,101877.28
2022-07-25T19:48:24.100Z,101881.72
2022-07-25T19:50:53.124Z,101886.19
2022-07-25T19:53:23.096Z,101889.34
2022-07-25T19:55:52.455Z,101894.19
2022-07-25T19:58:19.642Z,101900.38
2022-07-25T20:00:46.564Z,101906.91
2022-07-25T20:03:13.323Z,101906.06
2022-07-25T20:05:42.836Z,101903.31
2022-07-25T20:08:09.653Z,101914.53
2022-07-25T20:10:36.360Z,101917.00
2022-07-25T20:14:03.018Z,101913.59
2022-07-25T20:17:12.071Z,101920.53
2022-07-25T20:20:38.838Z,101937.25
2022-07-25T20:24:05.329Z,101933.00
2022-07-25T20:27:32.142Z,101931.66
2022-07-25T20:30:58.622Z,101934.34
2022-07-25T20:34:25.698Z,101945.94
2022-07-25T20:41:34.083Z,101944.63
2022-07-25T20:51:57.304Z,101958.50
2022-07-25T20:54:24.193Z,101956.50
2022-07-25T20:56:50.906Z,101955.34
2022-07-25T20:59:17.849Z,101961.25
2022-07-25T21:01:44.727Z,101968.19
2022-07-25T21:04:11.597Z,101967.69
2022-07-25T21:06:38.568Z,101962.56
2022-07-25T21:10:05.021Z,101976.06
2022-07-25T21:16:24.538Z,101981.56
2022-07-25T21:18:51.338Z,101983.00
2022-07-25T21:21:18.107Z,101984.88
2022-07-25T21:23:45.185Z,101984.69
2022-07-25T21:26:13.339Z,101981.47
2022-07-25T21:29:40.050Z,101980.44
2022-07-25T21:33:14.425Z,101987.81
2022-07-25T21:36:41.608Z,101993.50
2022-07-25T21:39:08.760Z,101988.56
2022-07-25T21:46:28.265Z,101994.16
2022-07-25T21:49:53.857Z,102000.06
2022-07-25T21:57:06.488Z,102003.88
2022-07-25T22:04:21.360Z,102016.44
2022-07-25T22:07:48.022Z,102027.47
2022-07-25T22:19:02.441Z,102030.59
2022-07-25T22:26:20.211Z,102049.63
2022-07-25T22:29:46.747Z,102054.28
2022-07-25T22:33:13.461Z,102053.41
2022-07-25T22:40:34.382Z,102059.13
2022-07-25T22:44:01.501Z,102060.84
2022-07-25T22:46:44.641Z,102062.88
2022-07-25T22:49:11.964Z,102065.47
2022-07-25T22:51:39.387Z,102059.31
2022-07-25T22:54:06.505Z,102051.44
2022-07-25T22:56:33.611Z,102053.66
2022-07-25T23:00:00.285Z,102058.69
2022-07-25T23:03:30.681Z,102062.25
2022-07-25T23:10:41.002Z,102070.88
2022-07-25T23:14:07.552Z,102074.97
2022-07-25T23:21:26.680Z,102074.97
2022-07-25T23:40:16.573Z,102083.75
2022-07-25T23:43:57.672Z,102094.41
2022-07-25T23:47:39.347Z,102099.56
2022-07-25T23:51:07.091Z,102084.84
2022-07-25T23:58:26.742Z,102099.94
